Santa Isabel, Argentina
Current Conditions -  °F | °C
As of 7:00 PM on Saturday 20 Dec 2014 (Local Time) from SAAR Reporting Station
Broken Clouds Broken Clouds  
Wind Chill: 24°   Ceiling: 20000
Heat Index: 24°   Visibility: 6mi
Dew Point: 17°   Wind: 13mph
Humidity: 65%   Direction: 140°SE
Pressure: 29.53"   Gusts: NA
Location:  33.9°S, 61.7°W
Report Text: SAAR 202200Z 14011KT 9999 FEW025 SCT100BKN200 24/17 Q1000
Loading
Personal Weather Stations






























Interactive Weather Map New forecast layout! Learn more

10-Day Weather Forecast

Advertisements
Track Severe Weather on mobile